createdAt,value
2022-08-19T00:15:05.122Z,0
2022-08-19T00:35:06.143Z,0
2022-08-19T00:55:06.990Z,0
2022-08-19T01:05:07.688Z,0
2022-08-19T01:15:08.219Z,0
2022-08-19T01:25:08.908Z,0
2022-08-19T01:35:08.672Z,0
2022-08-19T01:45:09.549Z,0
2022-08-19T01:55:09.625Z,0
2022-08-19T02:15:11.603Z,0
2022-08-19T02:35:13.052Z,0
2022-08-19T02:55:13.876Z,0
2022-08-19T03:05:14.655Z,0
2022-08-19T03:25:16.813Z,0
2022-08-19T03:45:17.311Z,0
2022-08-19T04:25:18.350Z,0
2022-08-19T04:35:20.182Z,0
2022-08-19T04:45:19.295Z,0
2022-08-19T04:55:19.617Z,0
2022-08-19T05:15:20.490Z,0
2022-08-19T05:25:21.520Z,0
2022-08-19T05:35:21.676Z,0
2022-08-19T05:55:23.062Z,0
2022-08-19T06:35:25.187Z,0
2022-08-19T06:45:34.701Z,0
2022-08-19T06:55:26.139Z,0
2022-08-19T07:05:26.381Z,0
2022-08-19T07:15:27.393Z,0
2022-08-19T07:25:32.010Z,7
2022-08-19T07:35:28.503Z,20
2022-08-19T07:45:29.148Z,21
2022-08-19T07:55:40.854Z,28
2022-08-19T08:15:30.124Z,38
2022-08-19T08:25:32.432Z,38
2022-08-19T08:35:31.834Z,49
2022-08-19T08:55:36.535Z,57
2022-08-19T09:15:36.655Z,71
2022-08-19T09:45:35.341Z,88
2022-08-19T09:55:36.324Z,86
2022-08-19T10:05:36.422Z,93
2022-08-19T10:25:43.580Z,91
2022-08-19T10:45:52.500Z,99
2022-08-19T10:55:45.009Z,100
2022-08-19T11:05:45.204Z,100
2022-08-19T11:15:45.762Z,100
2022-08-19T11:25:45.949Z,100
2022-08-19T11:35:46.661Z,100
2022-08-19T11:45:47.073Z,100
2022-08-19T11:55:47.293Z,100
2022-08-19T12:05:47.316Z,100
2022-08-19T12:15:47.538Z,100
2022-08-19T12:35:49.280Z,100
2022-08-19T12:45:49.953Z,100
2022-08-19T12:55:50.648Z,100
2022-08-19T13:05:51.631Z,99
2022-08-19T13:15:52.624Z,93
2022-08-19T13:35:54.010Z,97
2022-08-19T13:45:54.045Z,96
2022-08-19T13:55:54.578Z,94
2022-08-19T14:05:55.008Z,92
2022-08-19T14:15:55.909Z,91
2022-08-19T14:25:56.093Z,90
2022-08-19T14:35:59.596Z,90
2022-08-19T14:45:57.140Z,91
2022-08-19T14:55:57.785Z,91
2022-08-19T15:05:58.446Z,92
2022-08-19T15:25:59.379Z,90
2022-08-19T15:35:59.891Z,90
2022-08-19T15:56:00.668Z,94
2022-08-19T16:06:01.575Z,95
2022-08-19T16:16:01.950Z,94
2022-08-19T16:26:02.574Z,96
2022-08-19T16:36:07.146Z,94
2022-08-19T16:46:03.706Z,94
2022-08-19T16:56:04.494Z,94
2022-08-19T17:06:04.969Z,93
2022-08-19T17:16:06.010Z,92
2022-08-19T17:26:06.494Z,95
2022-08-19T17:36:06.605Z,95
2022-08-19T17:56:07.169Z,98
2022-08-19T18:06:07.776Z,98
2022-08-19T18:16:08.596Z,98
2022-08-19T18:26:08.813Z,99
2022-08-19T18:36:09.170Z,100
2022-08-19T18:46:09.244Z,100
2022-08-19T18:56:09.776Z,100
2022-08-19T19:26:11.493Z,87
2022-08-19T19:36:11.648Z,63
2022-08-19T19:46:11.821Z,54
2022-08-19T20:06:12.813Z,38
2022-08-19T20:16:13.336Z,28
2022-08-19T20:26:19.267Z,24
2022-08-19T20:36:13.784Z,19
2022-08-19T20:46:14.333Z,19
2022-08-19T20:56:14.814Z,18
2022-08-19T21:06:15.653Z,13
2022-08-19T21:16:16.558Z,11
2022-08-19T21:26:16.856Z,12
2022-08-19T21:36:17.811Z,7
2022-08-19T21:46:18.757Z,7
2022-08-19T21:56:19.469Z,5
2022-08-19T22:06:19.623Z,3
2022-08-19T22:16:20.323Z,0
2022-08-19T22:26:20.961Z,0
2022-08-19T22:36:21.649Z,0
2022-08-19T22:56:22.168Z,0
2022-08-19T23:06:22.633Z,0
2022-08-19T23:16:22.748Z,0
2022-08-19T23:26:22.983Z,0
2022-08-19T23:36:23.844Z,0
2022-08-19T23:56:24.546Z,0
